Time;durP1;ratioP1;P1;durP2;ratioP2;P2;SDS_P1;SDS_P2;PMS_P1;PMS_P2;Temp;Humidity;BMP_temperature;BMP_pressure;BME280_temperature;BME280_humidity;BME280_pressure;Samples;Min_cycle;Max_cycle;Signal;HPM_P1;HPM_P2
2022/08/15 00:01:28;;;;;;;1.95;1.90;;;;;;;;;;5118337;27;20592;-64
2022/08/15 00:04:15;;;;;;;2.20;2.10;;;;;;;;;;5102564;27;20285;-63
2022/08/15 00:07:04;;;;;;;2.00;1.90;;;;;;;;;;5119929;27;20249;-63
2022/08/15 00:09:52;;;;;;;2.13;2.03;;;;;;;;;;5099316;27;20217;-61
2022/08/15 00:12:41;;;;;;;2.30;2.08;;;;;;;;;;5113057;27;20275;-61
2022/08/15 00:15:28;;;;;;;1.90;1.80;;;;;;;;;;5106640;27;20476;-61
2022/08/15 00:18:16;;;;;;;2.08;1.98;;;;;;;;;;5101909;28;20214;-61
2022/08/15 00:21:03;;;;;;;1.80;1.80;;;;;;;;;;5102097;27;20207;-61
2022/08/15 00:23:51;;;;;;;2.05;2.05;;;;;;;;;;5111546;27;20222;-61
2022/08/15 00:26:40;;;;;;;2.10;2.00;;;;;;;;;;5113413;27;20569;-61
2022/08/15 00:29:29;;;;;;;1.90;1.80;;;;;;;;;;5112098;27;20336;-61
2022/08/15 00:32:23;;;;;;;1.92;1.92;;;;;;;;;;5099445;27;20199;-61
2022/08/15 00:38:13;;;;;;;2.10;2.00;;;;;;;;;;5106748;27;20250;-61
2022/08/15 00:44:12;;;;;;;1.98;1.90;;;;;;;;;;5114375;27;20217;-61
2022/08/15 00:47:03;;;;;;;2.28;2.17;;;;;;;;;;5110062;27;20205;-61
2022/08/15 00:49:50;;;;;;;1.77;1.77;;;;;;;;;;5111891;27;20233;-61
2022/08/15 00:52:37;;;;;;;2.13;2.03;;;;;;;;;;5111371;27;20212;-61
2022/08/15 00:55:27;;;;;;;1.77;1.77;;;;;;;;;;5110456;27;20221;-61
2022/08/15 00:58:13;;;;;;;2.05;1.95;;;;;;;;;;5109075;28;20209;-61
2022/08/15 01:01:03;;;;;;;2.15;2.05;;;;;;;;;;5108693;28;20312;-58
2022/08/15 01:03:52;;;;;;;1.88;1.77;;;;;;;;;;5107270;28;20237;-58
2022/08/15 01:06:39;;;;;;;1.98;1.88;;;;;;;;;;5115604;28;20371;-58
2022/08/15 01:09:28;;;;;;;2.20;2.10;;;;;;;;;;5108354;28;20221;-58
2022/08/15 01:12:19;;;;;;;1.92;1.92;;;;;;;;;;5112941;28;20202;-58
2022/08/15 01:15:11;;;;;;;1.98;1.90;;;;;;;;;;5103202;28;20257;-59
2022/08/15 01:18:00;;;;;;;2.28;1.80;;;;;;;;;;5118461;28;20209;-58
2022/08/15 01:20:48;;;;;;;1.85;1.85;;;;;;;;;;5103543;28;20205;-58
2022/08/15 01:23:45;;;;;;;1.98;1.88;;;;;;;;;;5111887;28;20204;-58
2022/08/15 01:26:34;;;;;;;1.48;1.48;;;;;;;;;;5108444;28;20215;-58
2022/08/15 01:29:22;;;;;;;2.00;1.90;;;;;;;;;;5112509;28;20680;-58
2022/08/15 01:32:09;;;;;;;2.17;2.08;;;;;;;;;;5100842;28;20216;-58
2022/08/15 01:35:00;;;;;;;2.00;1.90;;;;;;;;;;5118830;28;20225;-58
2022/08/15 01:37:50;;;;;;;2.00;1.90;;;;;;;;;;5097109;28;20210;-58
2022/08/15 01:40:48;;;;;;;2.17;2.08;;;;;;;;;;5114407;28;20749;-58
2022/08/15 01:43:41;;;;;;;2.10;2.00;;;;;;;;;;5107457;28;20217;-58
2022/08/15 01:46:33;;;;;;;1.58;1.58;;;;;;;;;;5115027;28;20690;-58
2022/08/15 01:49:27;;;;;;;1.77;1.77;;;;;;;;;;5120971;27;20213;-58
2022/08/15 01:52:16;;;;;;;2.05;1.95;;;;;;;;;;5113507;27;20212;-58
2022/08/15 01:55:07;;;;;;;1.63;1.63;;;;;;;;;;5122919;27;20200;-58
2022/08/15 01:57:54;;;;;;;1.60;1.60;;;;;;;;;;5108162;27;20215;-59
2022/08/15 02:00:50;;;;;;;2.15;1.95;;;;;;;;;;5123824;27;20240;-58
2022/08/15 02:03:39;;;;;;;1.80;1.70;;;;;;;;;;5105063;27;20231;-58
2022/08/15 02:06:29;;;;;;;1.90;1.80;;;;;;;;;;5119336;27;20253;-58
2022/08/15 02:09:19;;;;;;;1.90;1.80;;;;;;;;;;5100965;27;20206;-58
2022/08/15 02:12:08;;;;;;;1.65;1.65;;;;;;;;;;5124625;27;20213;-58
2022/08/15 02:14:56;;;;;;;1.70;1.70;;;;;;;;;;5108003;27;20276;-58
2022/08/15 02:17:45;;;;;;;1.60;1.52;;;;;;;;;;5118310;27;20608;-58
2022/08/15 02:20:32;;;;;;;1.92;1.90;;;;;;;;;;5104335;27;20222;-59
2022/08/15 02:23:19;;;;;;;2.42;1.90;;;;;;;;;;5122882;27;20718;-58
2022/08/15 02:26:09;;;;;;;1.90;1.80;;;;;;;;;;5097850;28;20749;-58
2022/08/15 02:28:56;;;;;;;1.60;1.50;;;;;;;;;;5108359;27;20206;-58
2022/08/15 02:31:44;;;;;;;1.85;1.75;;;;;;;;;;5108146;27;20201;-58
2022/08/15 02:34:34;;;;;;;1.60;1.60;;;;;;;;;;5118070;27;20194;-58
2022/08/15 02:37:21;;;;;;;1.58;1.58;;;;;;;;;;5116261;27;20206;-58
2022/08/15 02:40:11;;;;;;;1.63;1.60;;;;;;;;;;5119041;27;20217;-58
2022/08/15 02:43:01;;;;;;;1.85;1.80;;;;;;;;;;5114091;27;20262;-58
2022/08/15 02:45:49;;;;;;;1.80;1.70;;;;;;;;;;5118321;27;20238;-58
2022/08/15 02:48:37;;;;;;;1.80;1.70;;;;;;;;;;5113504;27;20657;-58
2022/08/15 02:51:26;;;;;;;1.73;1.63;;;;;;;;;;5114792;27;20284;-59
2022/08/15 02:54:16;;;;;;;1.80;1.70;;;;;;;;;;5111742;27;20247;-58
2022/08/15 02:57:03;;;;;;;1.73;1.73;;;;;;;;;;5103073;28;20254;-59
2022/08/15 02:59:50;;;;;;;1.98;1.88;;;;;;;;;;5118035;27;20212;-58
2022/08/15 03:02:49;;;;;;;1.70;1.70;;;;;;;;;;5114205;27;20198;-58
2022/08/15 03:05:39;;;;;;;1.70;1.67;;;;;;;;;;5120752;27;20260;-58
2022/08/15 03:08:27;;;;;;;1.85;1.75;;;;;;;;;;5101180;27;20627;-58
2022/08/15 03:11:14;;;;;;;1.88;1.77;;;;;;;;;;5111675;27;20228;-58
2022/08/15 03:14:01;;;;;;;1.80;1.70;;;;;;;;;;5113102;27;20246;-58
2022/08/15 03:16:49;;;;;;;1.70;1.70;;;;;;;;;;5118504;27;20660;-58
2022/08/15 03:19:37;;;;;;;1.85;1.75;;;;;;;;;;5107908;27;20205;-59
2022/08/15 03:22:24;;;;;;;1.75;1.60;;;;;;;;;;5119853;27;20209;-58
2022/08/15 03:25:13;;;;;;;1.60;1.60;;;;;;;;;;5113339;27;20723;-58
2022/08/15 03:28:00;;;;;;;1.77;1.67;;;;;;;;;;5119909;27;20205;-58
2022/08/15 03:30:47;;;;;;;1.85;1.80;;;;;;;;;;5110139;27;20677;-59
2022/08/15 03:33:36;;;;;;;1.90;1.80;;;;;;;;;;5116518;27;20549;-58
2022/08/15 03:36:24;;;;;;;1.75;1.65;;;;;;;;;;5094181;28;20210;-58
2022/08/15 03:39:11;;;;;;;1.83;1.50;;;;;;;;;;5119967;27;20212;-58
2022/08/15 03:42:08;;;;;;;1.88;1.77;;;;;;;;;;5111124;27;20285;-58
2022/08/15 03:44:56;;;;;;;1.90;1.80;;;;;;;;;;5121313;27;20228;-58
2022/08/15 03:47:43;;;;;;;1.80;1.70;;;;;;;;;;5099490;27;20209;-58
2022/08/15 03:50:31;;;;;;;1.70;1.70;;;;;;;;;;5110518;27;20219;-58
2022/08/15 03:53:18;;;;;;;1.90;1.80;;;;;;;;;;5112256;27;20411;-58
2022/08/15 03:56:08;;;;;;;1.65;1.65;;;;;;;;;;5117255;27;20210;-58
2022/08/15 03:58:58;;;;;;;1.80;1.70;;;;;;;;;;5103222;27;20208;-58
2022/08/15 04:01:45;;;;;;;2.03;1.92;;;;;;;;;;5117049;27;20216;-58
2022/08/15 04:04:33;;;;;;;1.77;1.67;;;;;;;;;;5116571;27;20315;-58
2022/08/15 04:07:20;;;;;;;2.00;1.90;;;;;;;;;;5116904;27;20201;-58
2022/08/15 04:10:09;;;;;;;1.70;1.70;;;;;;;;;;5121499;27;20204;-58
2022/08/15 04:12:57;;;;;;;1.50;1.50;;;;;;;;;;5117814;27;20208;-58
2022/08/15 04:15:46;;;;;;;2.08;1.98;;;;;;;;;;5106070;27;20193;-58
2022/08/15 04:18:33;;;;;;;1.75;1.65;;;;;;;;;;5105568;27;20209;-57
2022/08/15 04:21:20;;;;;;;1.73;1.70;;;;;;;;;;5119250;27;20205;-58
2022/08/15 04:24:07;;;;;;;1.67;1.67;;;;;;;;;;5100205;28;20565;-58
2022/08/15 04:26:54;;;;;;;2.00;1.90;;;;;;;;;;5113853;27;20749;-58
2022/08/15 04:29:41;;;;;;;2.33;1.92;;;;;;;;;;5108232;27;20252;-58
2022/08/15 04:32:30;;;;;;;1.58;1.48;;;;;;;;;;5113084;27;20277;-59
2022/08/15 04:35:17;;;;;;;1.60;1.50;;;;;;;;;;5113434;27;20204;-58
2022/08/15 04:38:04;;;;;;;1.65;1.63;;;;;;;;;;5115962;27;20208;-58
2022/08/15 04:40:51;;;;;;;1.80;1.70;;;;;;;;;;5109901;27;20216;-58
2022/08/15 04:43:40;;;;;;;2.00;1.90;;;;;;;;;;5120536;27;20201;-58
2022/08/15 04:46:27;;;;;;;1.75;1.65;;;;;;;;;;5095101;28;20245;-58
2022/08/15 04:49:15;;;;;;;1.52;1.52;;;;;;;;;;5116874;27;20230;-58
2022/08/15 04:52:11;;;;;;;1.67;1.50;;;;;;;;;;5112998;27;20197;-58
2022/08/15 04:54:58;;;;;;;2.00;1.77;;;;;;;;;;5110876;27;20210;-58
2022/08/15 04:57:45;;;;;;;2.33;1.67;;;;;;;;;;5105393;28;20268;-58
2022/08/15 05:00:32;;;;;;;2.03;1.88;;;;;;;;;;5115229;27;20206;-59
2022/08/15 05:03:20;;;;;;;1.60;1.50;;;;;;;;;;5102520;28;20234;-59
2022/08/15 05:06:10;;;;;;;1.60;1.50;;;;;;;;;;5113154;28;20264;-58
2022/08/15 05:08:58;;;;;;;2.03;1.92;;;;;;;;;;5102812;28;20194;-58
2022/08/15 05:11:45;;;;;;;1.70;1.60;;;;;;;;;;5116765;28;20232;-58
2022/08/15 05:14:32;;;;;;;1.50;1.40;;;;;;;;;;5100943;28;20279;-58
2022/08/15 05:17:18;;;;;;;1.60;1.50;;;;;;;;;;5108002;28;20280;-58
2022/08/15 05:20:07;;;;;;;1.80;1.73;;;;;;;;;;5107276;28;20204;-58
2022/08/15 05:22:58;;;;;;;1.83;1.73;;;;;;;;;;5108535;28;20205;-58
2022/08/15 05:25:48;;;;;;;1.70;1.60;;;;;;;;;;5104594;27;20229;-58
2022/08/15 05:28:35;;;;;;;1.60;1.60;;;;;;;;;;5112338;27;20202;-58
2022/08/15 05:31:22;;;;;;;1.95;1.85;;;;;;;;;;5120966;27;20201;-58
2022/08/15 05:34:10;;;;;;;1.83;1.83;;;;;;;;;;5118200;27;20571;-58
2022/08/15 05:36:58;;;;;;;1.70;1.60;;;;;;;;;;5112770;27;20731;-58
2022/08/15 05:39:46;;;;;;;1.85;1.73;;;;;;;;;;5110411;27;20567;-58
2022/08/15 05:42:41;;;;;;;1.35;1.33;;;;;;;;;;5120125;27;20229;-58
2022/08/15 05:45:35;;;;;;;1.65;1.55;;;;;;;;;;5108422;28;20287;-58
2022/08/15 05:48:30;;;;;;;1.63;1.60;;;;;;;;;;5112202;27;20757;-58
2022/08/15 05:51:29;;;;;;;2.10;2.00;;;;;;;;;;5108557;27;20206;-58
2022/08/15 05:54:27;;;;;;;1.60;1.60;;;;;;;;;;5114361;27;20532;-58
2022/08/15 05:57:21;;;;;;;2.00;1.90;;;;;;;;;;5106951;27;20281;-59
2022/08/15 06:00:11;;;;;;;1.75;1.67;;;;;;;;;;5122497;27;20557;-58
2022/08/15 06:03:02;;;;;;;1.70;1.70;;;;;;;;;;5113321;27;20236;-58
2022/08/15 06:05:53;;;;;;;2.45;1.92;;;;;;;;;;5107536;27;20592;-58
2022/08/15 06:08:46;;;;;;;1.75;1.70;;;;;;;;;;5104070;27;20209;-58
2022/08/15 06:11:41;;;;;;;1.80;1.70;;;;;;;;;;5111674;27;20338;-58
2022/08/15 06:14:32;;;;;;;1.80;1.70;;;;;;;;;;5105870;27;20274;-58
2022/08/15 06:17:34;;;;;;;1.70;1.60;;;;;;;;;;5108088;27;20204;-58
2022/08/15 06:20:27;;;;;;;2.00;1.90;;;;;;;;;;5118118;27;20619;-58
2022/08/15 06:23:23;;;;;;;2.00;1.92;;;;;;;;;;5102456;27;20632;-58
2022/08/15 06:26:31;;;;;;;1.70;1.70;;;;;;;;;;5115045;27;20225;-58
2022/08/15 06:29:47;;;;;;;2.00;1.90;;;;;;;;;;5104042;27;20210;-58
2022/08/15 06:32:41;;;;;;;1.70;1.60;;;;;;;;;;5118772;27;20810;-58
2022/08/15 06:35:36;;;;;;;1.80;1.70;;;;;;;;;;5102695;27;20233;-58
2022/08/15 06:38:30;;;;;;;1.90;1.80;;;;;;;;;;5119877;27;20599;-58
2022/08/15 06:41:25;;;;;;;1.80;1.70;;;;;;;;;;5112956;27;20201;-58
2022/08/15 06:44:12;;;;;;;1.92;1.70;;;;;;;;;;5120432;27;20205;-59
2022/08/15 06:47:03;;;;;;;2.03;1.92;;;;;;;;;;5105861;27;20335;-58
2022/08/15 06:49:54;;;;;;;2.05;1.95;;;;;;;;;;5107375;27;20298;-58
2022/08/15 06:52:47;;;;;;;1.83;1.73;;;;;;;;;;5118769;27;20197;-58
2022/08/15 06:55:44;;;;;;;1.80;1.70;;;;;;;;;;5119486;27;20212;-59
2022/08/15 06:58:39;;;;;;;2.45;1.70;;;;;;;;;;5122287;27;20342;-58
2022/08/15 07:01:39;;;;;;;1.60;1.60;;;;;;;;;;5105893;27;20202;-58
2022/08/15 07:04:39;;;;;;;1.60;1.60;;;;;;;;;;5121338;27;20278;-58
2022/08/15 07:07:35;;;;;;;2.10;2.00;;;;;;;;;;5099701;28;20221;-58
2022/08/15 07:10:27;;;;;;;1.83;1.75;;;;;;;;;;5122396;27;20214;-58
2022/08/15 07:13:19;;;;;;;1.60;1.60;;;;;;;;;;5115080;27;20284;-59
2022/08/15 07:16:16;;;;;;;1.60;1.45;;;;;;;;;;5121415;27;20290;-56
2022/08/15 07:19:03;;;;;;;1.42;1.42;;;;;;;;;;5115629;27;20208;-56
2022/08/15 07:21:52;;;;;;;1.55;1.50;;;;;;;;;;5118913;27;20190;-57
2022/08/15 07:24:49;;;;;;;1.88;1.80;;;;;;;;;;5112416;27;20197;-57
2022/08/15 07:27:36;;;;;;;1.83;1.73;;;;;;;;;;5111375;27;20222;-57
2022/08/15 07:30:36;;;;;;;1.77;1.67;;;;;;;;;;5105803;27;20281;-57
2022/08/15 07:33:36;;;;;;;1.55;1.45;;;;;;;;;;5105545;27;20207;-58
2022/08/15 07:36:26;;;;;;;1.98;1.90;;;;;;;;;;5112694;27;20198;-58
2022/08/15 07:39:26;;;;;;;1.90;1.80;;;;;;;;;;5107793;27;20339;-58
2022/08/15 07:42:18;;;;;;;1.60;1.58;;;;;;;;;;5121942;27;20213;-58
2022/08/15 07:45:11;;;;;;;1.85;1.75;;;;;;;;;;5104562;27;20199;-59
2022/08/15 07:48:02;;;;;;;1.42;1.42;;;;;;;;;;5123825;27;20225;-59
2022/08/15 07:51:07;;;;;;;1.60;1.50;;;;;;;;;;5111717;27;20205;-59
2022/08/15 07:53:56;;;;;;;1.60;1.60;;;;;;;;;;5117504;27;20283;-59
2022/08/15 07:56:53;;;;;;;1.42;1.40;;;;;;;;;;5102937;27;20671;-59
2022/08/15 07:59:40;;;;;;;1.98;1.63;;;;;;;;;;5120954;27;20205;-59
2022/08/15 08:02:33;;;;;;;1.90;1.80;;;;;;;;;;5098627;28;20216;-60
2022/08/15 08:05:24;;;;;;;1.70;1.60;;;;;;;;;;5095675;28;20218;-59
2022/08/15 08:08:12;;;;;;;2.20;1.65;;;;;;;;;;5089975;28;20206;-60
2022/08/15 08:11:06;;;;;;;1.70;1.60;;;;;;;;;;5093668;28;20209;-59
2022/08/15 08:14:02;;;;;;;1.45;1.45;;;;;;;;;;5094098;28;20260;-59
2022/08/15 08:16:54;;;;;;;1.50;1.50;;;;;;;;;;5095160;28;20231;-59
2022/08/15 08:19:56;;;;;;;1.73;1.63;;;;;;;;;;5100639;28;20195;-59
2022/08/15 08:22:51;;;;;;;1.77;1.67;;;;;;;;;;5083785;28;20540;-59
2022/08/15 08:25:44;;;;;;;1.85;1.80;;;;;;;;;;5101564;28;20202;-59
2022/08/15 08:28:39;;;;;;;1.70;1.60;;;;;;;;;;5085084;28;20245;-59
2022/08/15 08:31:37;;;;;;;1.67;1.67;;;;;;;;;;5097813;28;20204;-60
2022/08/15 08:34:29;;;;;;;1.80;1.70;;;;;;;;;;5078710;28;20209;-57
2022/08/15 08:37:22;;;;;;;1.42;1.42;;;;;;;;;;5097287;28;20201;-56
2022/08/15 08:43:33;;;;;;;1.67;1.58;;;;;;;;;;5097794;28;20574;-57
2022/08/15 08:46:35;;;;;;;1.90;1.80;;;;;;;;;;5086190;28;20283;-57
2022/08/15 08:49:30;;;;;;;1.75;1.65;;;;;;;;;;5095740;28;20210;-57
2022/08/15 08:52:24;;;;;;;2.10;2.00;;;;;;;;;;5097999;28;20206;-57
2022/08/15 08:55:17;;;;;;;1.80;1.70;;;;;;;;;;5081204;28;20211;-57
2022/08/15 08:58:10;;;;;;;2.20;2.00;;;;;;;;;;5097558;28;20573;-56
2022/08/15 09:00:59;;;;;;;1.67;1.67;;;;;;;;;;5092992;28;20205;-56
2022/08/15 09:03:51;;;;;;;2.15;2.05;;;;;;;;;;5107856;28;20236;-57
2022/08/15 09:06:43;;;;;;;2.13;1.90;;;;;;;;;;5106295;28;20362;-57
2022/08/15 09:09:35;;;;;;;2.25;2.15;;;;;;;;;;5102903;28;20269;-56
2022/08/15 09:15:32;;;;;;;2.00;1.90;;;;;;;;;;5114384;28;20209;-57
2022/08/15 09:18:25;;;;;;;1.90;1.80;;;;;;;;;;5113967;28;20254;-56
2022/08/15 09:21:13;;;;;;;2.00;1.90;;;;;;;;;;5113817;28;20218;-57
2022/08/15 09:24:00;;;;;;;2.30;2.20;;;;;;;;;;5104243;28;20205;-56
2022/08/15 09:26:56;;;;;;;1.88;1.85;;;;;;;;;;5119732;28;20230;-57
2022/08/15 09:29:47;;;;;;;2.20;2.10;;;;;;;;;;5112901;28;20224;-56
2022/08/15 09:32:53;;;;;;;2.83;2.10;;;;;;;;;;5114367;28;20213;-56
2022/08/15 09:35:57;;;;;;;2.13;2.03;;;;;;;;;;5110846;28;20254;-57
2022/08/15 09:38:50;;;;;;;2.08;1.98;;;;;;;;;;5111903;28;20327;-57
2022/08/15 09:41:49;;;;;;;2.42;2.33;;;;;;;;;;5121320;28;20554;-57
2022/08/15 09:45:02;;;;;;;2.20;2.10;;;;;;;;;;5098283;28;20312;-56
2022/08/15 09:48:00;;;;;;;2.38;2.28;;;;;;;;;;5114298;28;20225;-56
2022/08/15 09:51:12;;;;;;;2.30;2.20;;;;;;;;;;5109788;28;20209;-56
2022/08/15 09:54:08;;;;;;;2.33;2.22;;;;;;;;;;5105407;28;20216;-56
2022/08/15 09:57:20;;;;;;;2.45;2.35;;;;;;;;;;5114172;28;20205;-59
2022/08/15 10:00:20;;;;;;;2.25;2.15;;;;;;;;;;5110941;28;20209;-59
2022/08/15 10:03:21;;;;;;;2.50;2.30;;;;;;;;;;5114963;28;20313;-59
2022/08/15 10:06:09;;;;;;;2.60;2.50;;;;;;;;;;5112789;28;20933;-58
2022/08/15 10:09:33;;;;;;;2.90;2.70;;;;;;;;;;5113599;28;20205;-59
2022/08/15 10:12:23;;;;;;;2.75;2.60;;;;;;;;;;5074766;27;20353;-59
2022/08/15 10:15:35;;;;;;;2.50;2.40;;;;;;;;;;5110633;27;20214;-56
2022/08/15 10:19:00;;;;;;;2.60;2.50;;;;;;;;;;5108687;27;20194;-58
2022/08/15 10:21:47;;;;;;;2.50;2.40;;;;;;;;;;5111312;27;20320;-60
2022/08/15 10:24:38;;;;;;;3.10;2.83;;;;;;;;;;5114454;27;20235;-59
2022/08/15 10:27:26;;;;;;;2.80;2.65;;;;;;;;;;5109511;27;20229;-60
2022/08/15 10:30:18;;;;;;;2.60;2.50;;;;;;;;;;5110903;27;20202;-60
2022/08/15 10:33:26;;;;;;;2.80;2.50;;;;;;;;;;5108962;27;20213;-59
2022/08/15 10:36:23;;;;;;;2.45;2.35;;;;;;;;;;5119464;27;20285;-59
2022/08/15 10:39:22;;;;;;;2.53;2.42;;;;;;;;;;5104107;27;20213;-59
2022/08/15 10:42:26;;;;;;;2.47;2.38;;;;;;;;;;5112501;27;20193;-59
2022/08/15 10:45:18;;;;;;;2.65;2.55;;;;;;;;;;5113834;27;20213;-59
2022/08/15 10:48:12;;;;;;;2.75;2.65;;;;;;;;;;5118082;27;20221;-59
2022/08/15 10:51:06;;;;;;;2.88;2.78;;;;;;;;;;5119737;27;20246;-59
2022/08/15 10:54:10;;;;;;;2.50;2.30;;;;;;;;;;5120081;27;20343;-59
2022/08/15 10:56:58;;;;;;;2.60;2.50;;;;;;;;;;5115046;27;20200;-59
2022/08/15 10:59:48;;;;;;;2.80;2.70;;;;;;;;;;5109712;27;20289;-58
2022/08/15 11:02:45;;;;;;;2.80;2.70;;;;;;;;;;5119995;27;20198;-58
2022/08/15 11:05:33;;;;;;;2.90;2.70;;;;;;;;;;5103129;27;20291;-59
2022/08/15 11:08:20;;;;;;;3.08;2.88;;;;;;;;;;5126267;27;20232;-59
2022/08/15 11:11:11;;;;;;;3.03;2.83;;;;;;;;;;5107630;27;20573;-59
2022/08/15 11:14:01;;;;;;;2.85;2.72;;;;;;;;;;5120985;27;20277;-59
2022/08/15 11:16:52;;;;;;;2.97;2.78;;;;;;;;;;5107528;27;20662;-59
2022/08/15 11:19:43;;;;;;;2.97;2.88;;;;;;;;;;5106681;28;20214;-58
2022/08/15 11:22:33;;;;;;;2.80;2.70;;;;;;;;;;5114395;27;20209;-59
2022/08/15 11:25:26;;;;;;;3.10;2.90;;;;;;;;;;5111321;27;20213;-59
2022/08/15 11:28:20;;;;;;;2.90;2.70;;;;;;;;;;5104466;27;20225;-59
2022/08/15 11:31:13;;;;;;;3.00;2.80;;;;;;;;;;5105526;27;20367;-59
2022/08/15 11:34:02;;;;;;;3.15;3.00;;;;;;;;;;5108027;27;20210;-59
2022/08/15 11:36:50;;;;;;;3.03;2.90;;;;;;;;;;5108287;27;20248;-59
2022/08/15 11:39:42;;;;;;;3.30;3.10;;;;;;;;;;5106038;27;20206;-60
2022/08/15 11:42:31;;;;;;;3.10;2.92;;;;;;;;;;5106285;27;20202;-59
2022/08/15 11:45:21;;;;;;;3.20;3.00;;;;;;;;;;5107007;27;20729;-60
2022/08/15 11:48:13;;;;;;;3.05;2.85;;;;;;;;;;5108853;27;20700;-59
2022/08/15 11:51:06;;;;;;;3.25;3.05;;;;;;;;;;5106188;27;20205;-59
2022/08/15 11:54:07;;;;;;;3.38;3.10;;;;;;;;;;5112320;27;20244;-60
2022/08/15 11:56:56;;;;;;;3.20;3.05;;;;;;;;;;5107859;27;20232;-59
2022/08/15 12:00:04;;;;;;;3.15;3.00;;;;;;;;;;5106959;27;20751;-59
2022/08/15 12:02:52;;;;;;;3.40;3.20;;;;;;;;;;5112148;27;20764;-59
2022/08/15 12:05:39;;;;;;;3.72;3.53;;;;;;;;;;5103643;27;20233;-59
2022/08/15 12:08:30;;;;;;;3.40;3.28;;;;;;;;;;5108976;27;20235;-59
2022/08/15 12:11:22;;;;;;;3.10;3.00;;;;;;;;;;5097480;27;20217;-59
2022/08/15 12:14:21;;;;;;;3.60;3.40;;;;;;;;;;5106726;27;20206;-59
2022/08/15 12:17:24;;;;;;;3.38;3.17;;;;;;;;;;5106861;27;20203;-59
2022/08/15 12:20:15;;;;;;;3.22;3.10;;;;;;;;;;5104813;27;20204;-58
2022/08/15 12:23:22;;;;;;;3.47;3.17;;;;;;;;;;5106422;27;20195;-59
2022/08/15 12:26:12;;;;;;;3.40;3.20;;;;;;;;;;5108319;27;20209;-59
2022/08/15 12:28:59;;;;;;;3.60;3.40;;;;;;;;;;5113667;27;20225;-59
2022/08/15 12:31:48;;;;;;;3.58;3.38;;;;;;;;;;5111158;27;20234;-59
2022/08/15 12:34:37;;;;;;;3.50;3.30;;;;;;;;;;5109062;27;20206;-59
2022/08/15 12:37:26;;;;;;;3.30;3.10;;;;;;;;;;5107387;27;20266;-59
2022/08/15 12:40:13;;;;;;;3.58;3.47;;;;;;;;;;5111032;27;20198;-59
2022/08/15 12:43:02;;;;;;;3.65;3.45;;;;;;;;;;5109059;27;20552;-58
2022/08/15 12:45:49;;;;;;;3.60;3.40;;;;;;;;;;5111070;27;20206;-59
2022/08/15 12:48:37;;;;;;;3.60;3.40;;;;;;;;;;5102997;27;20255;-59
2022/08/15 12:51:25;;;;;;;3.90;3.60;;;;;;;;;;5108710;27;20201;-59
2022/08/15 12:54:12;;;;;;;3.58;3.38;;;;;;;;;;5108153;28;20664;-59
2022/08/15 12:56:59;;;;;;;3.88;3.60;;;;;;;;;;5106925;27;20194;-59
2022/08/15 12:59:48;;;;;;;3.80;3.50;;;;;;;;;;5105669;27;20212;-60
2022/08/15 13:02:37;;;;;;;3.92;3.72;;;;;;;;;;5106025;27;20197;-59
2022/08/15 13:05:30;;;;;;;3.88;3.67;;;;;;;;;;5104662;27;20239;-58
2022/08/15 13:08:17;;;;;;;3.92;3.72;;;;;;;;;;5113614;28;20226;-59
2022/08/15 13:11:04;;;;;;;3.88;3.67;;;;;;;;;;5109279;28;20418;-59
2022/08/15 13:13:51;;;;;;;3.70;3.50;;;;;;;;;;5114991;28;20215;-58
2022/08/15 13:16:41;;;;;;;3.80;3.60;;;;;;;;;;5108770;28;20197;-59
2022/08/15 13:19:31;;;;;;;4.15;3.90;;;;;;;;;;5107778;28;20205;-59
2022/08/15 13:25:23;;;;;;;4.13;3.92;;;;;;;;;;5104735;28;20202;-59
2022/08/15 13:28:10;;;;;;;4.32;4.03;;;;;;;;;;5108806;28;20214;-59
2022/08/15 13:30:57;;;;;;;3.80;3.60;;;;;;;;;;5106314;28;20584;-59
2022/08/15 13:33:46;;;;;;;3.83;3.63;;;;;;;;;;5111030;28;20259;-59
2022/08/15 13:36:34;;;;;;;4.03;3.83;;;;;;;;;;5104456;28;20657;-59
2022/08/15 13:39:32;;;;;;;3.72;3.53;;;;;;;;;;5098560;28;20519;-59
2022/08/15 13:42:19;;;;;;;3.78;3.58;;;;;;;;;;5105974;28;20206;-59
2022/08/15 13:45:07;;;;;;;3.97;3.78;;;;;;;;;;5100764;27;20202;-59
2022/08/15 13:47:54;;;;;;;4.20;4.00;;;;;;;;;;5109498;28;20267;-60
2022/08/15 13:50:43;;;;;;;4.10;3.80;;;;;;;;;;5110598;27;20269;-59
2022/08/15 13:53:30;;;;;;;4.03;3.72;;;;;;;;;;5107847;28;20647;-59
2022/08/15 13:56:17;;;;;;;4.47;4.28;;;;;;;;;;5121931;27;20209;-58
2022/08/15 13:59:06;;;;;;;4.20;4.00;;;;;;;;;;5111134;27;20213;-59
2022/08/15 14:01:53;;;;;;;4.25;3.90;;;;;;;;;;5111377;27;20556;-59
2022/08/15 14:04:41;;;;;;;4.45;4.07;;;;;;;;;;5111824;27;20587;-59
2022/08/15 14:07:31;;;;;;;4.38;3.97;;;;;;;;;;5117091;27;20206;-59
2022/08/15 14:10:20;;;;;;;4.20;3.90;;;;;;;;;;5105115;27;20217;-59
2022/08/15 14:13:08;;;;;;;4.85;4.55;;;;;;;;;;5122063;27;20322;-59
2022/08/15 14:15:55;;;;;;;4.43;4.13;;;;;;;;;;5114419;27;20576;-59
2022/08/15 14:18:44;;;;;;;4.15;3.95;;;;;;;;;;5112135;27;20540;-58
2022/08/15 14:21:32;;;;;;;4.50;4.20;;;;;;;;;;5109381;27;20201;-59
2022/08/15 14:24:20;;;;;;;4.20;3.90;;;;;;;;;;5118009;27;20194;-59
2022/08/15 14:27:07;;;;;;;4.28;3.97;;;;;;;;;;5110086;27;20205;-58
2022/08/15 14:29:54;;;;;;;4.30;4.10;;;;;;;;;;5111115;27;20255;-59
2022/08/15 14:32:42;;;;;;;4.20;3.97;;;;;;;;;;5107808;27;20197;-59
2022/08/15 14:35:30;;;;;;;4.28;4.07;;;;;;;;;;5111034;27;20289;-59
2022/08/15 14:38:17;;;;;;;4.38;4.00;;;;;;;;;;5108632;28;20194;-58
2022/08/15 14:41:06;;;;;;;4.03;3.83;;;;;;;;;;5108260;27;20220;-59
2022/08/15 14:43:53;;;;;;;4.15;3.90;;;;;;;;;;5116568;27;20601;-59
2022/08/15 14:46:40;;;;;;;4.25;4.05;;;;;;;;;;5117614;27;20202;-59
2022/08/15 14:49:30;;;;;;;4.10;3.90;;;;;;;;;;5112945;27;20220;-60
2022/08/15 14:52:18;;;;;;;4.60;3.80;;;;;;;;;;5105506;27;20210;-59
2022/08/15 14:55:06;;;;;;;4.40;4.10;;;;;;;;;;5111543;27;20262;-59
2022/08/15 14:57:55;;;;;;;4.10;3.90;;;;;;;;;;5108686;28;20202;-59
2022/08/15 15:00:43;;;;;;;4.38;4.10;;;;;;;;;;5110236;27;20206;-58
2022/08/15 15:03:32;;;;;;;4.68;4.38;;;;;;;;;;5108049;27;20288;-58
2022/08/15 15:06:20;;;;;;;4.25;4.05;;;;;;;;;;5110384;27;20296;-59
2022/08/15 15:09:08;;;;;;;4.25;4.05;;;;;;;;;;5110838;27;20223;-59
2022/08/15 15:11:55;;;;;;;4.32;4.13;;;;;;;;;;5118799;27;20750;-60
2022/08/15 15:14:43;;;;;;;4.80;4.50;;;;;;;;;;5115192;27;20243;-59
2022/08/15 15:17:31;;;;;;;4.20;3.90;;;;;;;;;;5105482;27;20629;-59
2022/08/15 15:20:19;;;;;;;4.43;4.13;;;;;;;;;;5103658;28;20205;-59
2022/08/15 15:23:06;;;;;;;4.60;4.22;;;;;;;;;;5114619;27;20225;-59
2022/08/15 15:25:54;;;;;;;4.28;3.97;;;;;;;;;;5104059;27;20195;-59
2022/08/15 15:28:44;;;;;;;4.05;3.85;;;;;;;;;;5109570;27;20359;-59
2022/08/15 15:31:33;;;;;;;4.55;4.25;;;;;;;;;;5103278;28;20328;-59
2022/08/15 15:34:20;;;;;;;4.28;3.97;;;;;;;;;;5109787;27;20292;-59
2022/08/15 15:37:07;;;;;;;4.20;4.00;;;;;;;;;;5100142;28;20228;-59
2022/08/15 15:39:54;;;;;;;3.95;3.75;;;;;;;;;;5107661;27;20673;-59
2022/08/15 15:42:40;;;;;;;4.60;4.30;;;;;;;;;;5101011;27;20546;-58
2022/08/15 15:45:28;;;;;;;4.72;4.43;;;;;;;;;;5112337;27;20238;-59
2022/08/15 15:48:16;;;;;;;3.97;3.78;;;;;;;;;;5110847;27;20221;-59
2022/08/15 15:51:04;;;;;;;4.28;4.07;;;;;;;;;;5111592;27;20248;-59
2022/08/15 15:53:53;;;;;;;4.40;4.10;;;;;;;;;;5108961;27;20213;-60
2022/08/15 15:56:40;;;;;;;4.32;4.03;;;;;;;;;;5108908;27;20769;-59
2022/08/15 15:59:27;;;;;;;4.32;4.13;;;;;;;;;;5107421;27;20255;-59
2022/08/15 16:02:20;;;;;;;3.92;3.70;;;;;;;;;;5108146;27;20314;-59
2022/08/15 16:05:10;;;;;;;4.57;4.28;;;;;;;;;;5114715;27;20604;-59
2022/08/15 16:07:59;;;;;;;4.03;3.83;;;;;;;;;;5112060;27;20211;-58
2022/08/15 16:10:52;;;;;;;4.30;4.00;;;;;;;;;;5109942;27;20205;-58
2022/08/15 16:13:47;;;;;;;4.47;4.22;;;;;;;;;;5111608;27;21199;-58
2022/08/15 16:16:39;;;;;;;4.07;3.88;;;;;;;;;;5112879;27;20705;-59
2022/08/15 16:19:31;;;;;;;4.20;4.00;;;;;;;;;;5108331;27;20199;-60
2022/08/15 16:22:25;;;;;;;4.50;4.20;;;;;;;;;;5108759;27;20209;-59
2022/08/15 16:25:17;;;;;;;4.28;4.03;;;;;;;;;;5108903;27;20206;-59
2022/08/15 16:28:09;;;;;;;3.85;3.65;;;;;;;;;;5112732;27;20665;-59
2022/08/15 16:31:03;;;;;;;4.30;4.05;;;;;;;;;;5107891;27;20202;-59
2022/08/15 16:33:55;;;;;;;4.32;4.03;;;;;;;;;;5112209;27;20202;-59
2022/08/15 16:36:48;;;;;;;4.10;3.90;;;;;;;;;;5106708;27;20202;-59
2022/08/15 16:39:42;;;;;;;4.28;3.97;;;;;;;;;;5109064;27;20199;-59
2022/08/15 16:42:35;;;;;;;4.50;4.20;;;;;;;;;;5103671;27;20711;-59
2022/08/15 16:45:34;;;;;;;4.22;3.97;;;;;;;;;;5101672;28;20478;-59
2022/08/15 16:48:29;;;;;;;4.18;3.88;;;;;;;;;;5108624;27;20197;-59
2022/08/15 16:51:21;;;;;;;4.60;4.30;;;;;;;;;;5114978;27;20220;-58
2022/08/15 16:54:22;;;;;;;4.18;3.97;;;;;;;;;;5118836;27;20217;-58
2022/08/15 16:57:18;;;;;;;4.45;4.15;;;;;;;;;;5115594;27;20279;-59
2022/08/15 17:00:10;;;;;;;4.13;3.92;;;;;;;;;;5114036;27;20200;-59
2022/08/15 17:03:19;;;;;;;4.32;4.07;;;;;;;;;;5109080;28;20269;-58
2022/08/15 17:06:17;;;;;;;4.10;3.80;;;;;;;;;;5113225;27;20601;-59
2022/08/15 17:09:12;;;;;;;4.28;4.00;;;;;;;;;;5103737;28;20253;-58
2022/08/15 17:12:07;;;;;;;4.07;3.78;;;;;;;;;;5115832;28;20236;-59
2022/08/15 17:15:07;;;;;;;4.63;4.35;;;;;;;;;;5112943;28;20209;-59
2022/08/15 17:18:12;;;;;;;4.28;4.07;;;;;;;;;;5110555;28;20203;-59
2022/08/15 17:21:07;;;;;;;4.60;4.30;;;;;;;;;;5112734;27;20657;-59
2022/08/15 17:24:24;;;;;;;4.63;4.32;;;;;;;;;;5115732;27;20205;-59